Terminal Aerodrome Forecast
Issued by NWS Shreveport, LA

Home | Current Version | Previous Version | Text Only | Print | Product List | Glossary On
Versions: 1 2 3 4 5 6 7 8 9 10 11 12 13 14 15 16 17 18 19
000
FTUS44 KSHV 301729
TAFLFK
TAF
KLFK 301729Z 3018/3118 16006KT P6SM SCT035 BKN150 BKN250
     FM310000 14003KT P6SM SCT050 SCT150 SCT250
      TEMPO 3109/3113 3SM BR BKN005
     FM311400 19005KT P6SM SCT015 SCT250
     FM311600 19006KT P6SM SCT035 SCT250=

USA.gov is the U.S. government's official web portal to all federal, state and local government web resources and services.